Tuesday, November 13, 2018, 7:28 PM EST
Back to Local

KCON, Concord, Concord Municipal Airport

Location: Concord, NH, United States Lat: 43.195
Local Time: 7:28 PM EST ( 0:28 GMT) Lon: -71.501
Time Zone: US/Eastern Elev: 344 ft

Show me the last for .
Show Decoded

2018-11-13 18:51 METAR KCON 132351Z AUTO 29006KT 10SM FEW120 03/01 A2983 RMK AO2 SLP106 60003
                 T00330011 10044 20033 51031 =
2018-11-13 17:51 METAR KCON 132251Z AUTO 31012G19KT 10SM CLR 04/01 A2980 RMK AO2 SLP095 T00390011
                 =
2018-11-13 16:51 METAR KCON 132151Z AUTO 30015G24KT 10SM OVC110 04/02 A2979 RMK AO2 PK WND
                 31028/2134 SLP090 T00390022 =
2018-11-13 16:08 METAR KCON 132108Z AUTO 32007KT 10SM SCT007 SCT090 BKN120 04/03 A2974 RMK AO2
                 T00390033 =
2018-11-13 15:51 METAR KCON 132051Z AUTO 32006KT 10SM BKN008 BKN075 BKN085 04/03 A2974 RMK AO2
                 RAB1959E08B38E49 SLP074 P0000 60003 T00390033 58006 =
2018-11-13 14:51 METAR KCON 131951Z AUTO 31009KT 10SM FEW007 OVC031 04/03 A2977 RMK AO2 RAE31
                 SLP083 P0001 T00390033 =
2018-11-13 14:46 METAR KCON 131946Z AUTO 31008KT 10SM SCT006 SCT015 OVC031 04/03 A2976 RMK AO2
                 RAE31 P0001 =
2018-11-13 14:37 METAR KCON 131937Z AUTO 32008KT 9SM SCT006 BKN013 OVC030 04/03 A2976 =
2018-11-13 14:15 METAR KCON 131915Z AUTO 32011G21KT 5SM -RA BR BKN005 OVC012 03/03 A2977 RMK AO2
                 CIG 003V008 P0000 T00330028 =
2018-11-13 13:51 METAR KCON 131851Z AUTO 30011KT 4SM -RA BR BKN004 OVC023 03/03 A2979 RMK AO2
                 SLP090 P0002 T00330033 =
2018-11-13 13:30 METAR KCON 131830Z AUTO 31007KT 3SM -RA BR OVC004 03/03 A2978 RMK AO2 CIG
                 003V008 P0002 T00330033 =
2018-11-13 12:58 METAR KCON 131758Z AUTO 33005KT 2 1/2SM -RA BR BKN005 BKN011 OVC017 03/03 A2982
                 =
2018-11-13 12:51 METAR KCON 131751Z AUTO 33004KT 1 3/4SM -RA BR BKN005 BKN011 OVC016 03/03 A2982
                 RMK AO2 SLP103 P0002 60066 T00330028 10033 20011 58034 =
2018-11-13 12:36 METAR KCON 131736Z AUTO 33007KT 2 1/2SM -RA BR BKN005 OVC010 03/03 A2984 RMK AO2
                 P0001 T00330028 =
2018-11-13 11:51 METAR KCON 131651Z AUTO 31009KT 5SM -RA BR OVC004 03/02 A2987 RMK AO2 SLP119
                 P0012 T00280022 =
2018-11-13 11:33 METAR KCON 131633Z AUTO 31005KT 3SM -RA BR BKN004 OVC015 03/02 A2989 RMK AO2
                 P0010 T00280022 =
2018-11-13 11:22 METAR KCON 131622Z AUTO 31005KT 2 1/2SM RA BR BKN004 OVC015 03/02 A2990 RMK AO2
                 P0009 T00280022 =
2018-11-13 11:08 METAR KCON 131608Z AUTO 32007KT 2SM RA BR BKN005 OVC013 03/02 A2991 RMK AO2
                 P0005 T00280022 =
2018-11-13 10:51 METAR KCON 131551Z AUTO 31004KT 2SM RA BR BKN004 OVC008 02/02 A2992 RMK AO2
                 SLP137 P0013 T00220017 =
2018-11-13 10:36 METAR KCON 131536Z AUTO 31007KT 1 3/4SM RA BR OVC004 02/02 A2993 RMK AO2 CIG
                 003V007 P0009 T00220017 =
2018-11-13 10:16 METAR KCON 131516Z AUTO 32008KT 3SM RA BR OVC003 03/02 A2995 RMK AO2 P0004
                 T00280022 =
2018-11-13 09:51 METAR KCON 131451Z AUTO 28006KT 2SM RA BR OVC003 03/02 A2996 RMK AO2 SLP150
                 P0013 60039 T00280022 58033 =
2018-11-13 09:48 METAR KCON 131448Z AUTO 29004KT 2SM RA BR BKN003 OVC008 03/02 A2996 =
2018-11-13 09:42 METAR KCON 131442Z AUTO 00000KT 2SM RA BR BKN002 OVC013 03/02 A2996 RMK AO2
                 P0011 T00280022 =
2018-11-13 09:33 METAR KCON 131433Z AUTO 00000KT 3SM RA BR BKN002 BKN009 OVC015 03/02 A2997 RMK
                 AO2 P0009 T00280022 =
2018-11-13 09:05 METAR KCON 131405Z AUTO 31005KT 2SM RA BR BKN003 OVC009 02/02 A3000 RMK AO2
                 P0003 T00220017 =
2018-11-13 08:51 METAR KCON 131351Z AUTO 32003KT 2SM RA BR BKN002 OVC008 02/02 A3001 RMK AO2 CIG
                 002V007 SLP167 P0013 T00220022 =
2018-11-13 08:25 METAR KCON 131325Z AUTO 00000KT 2 1/2SM RA BR BKN002 OVC006 02/02 A3003 RMK AO2
                 P0008 T00220017 =
2018-11-13 08:07 METAR KCON 131307Z AUTO 29006KT 1 1/2SM RA BR OVC004 02/02 A3005 RMK AO2 CIG
                 002V008 P0004 T00220017 =
2018-11-13 08:01 METAR KCON 131301Z AUTO 29005KT 1 1/4SM RA BR OVC006 02/02 A3006 RMK AO2 CIG
                 002V008 P0001 T00220017 =
2018-11-13 07:51 METAR KCON 131251Z AUTO 00000KT 1 1/2SM RA BR OVC006 02/02 A3006 RMK AO2 CIG
                 003V008 SLP183 P0013 T00170017 =
2018-11-13 07:46 METAR KCON 131246Z AUTO 00000KT 1 1/2SM RA BR OVC006 02/01 A3006 RMK AO2 CIG
                 002V008 P0012 =
2018-11-13 07:33 METAR KCON 131233Z AUTO 00000KT 2SM RA BR OVC005 02/01 A3007 RMK AO2 CIG 002V009
                 P0009 T00170011 =
2018-11-13 07:20 METAR KCON 131220Z AUTO 00000KT 1 1/4SM RA BR BKN004 OVC008 02/01 A3008 RMK AO2
                 CIG 002V006 P0006 T00170011 =
2018-11-13 07:16 METAR KCON 131216Z AUTO 00000KT 1 3/4SM RA BR OVC006 02/01 A3009 RMK AO2 CIG
                 002V009 P0006 T00170011 =
2018-11-13 06:51 METAR KCON 131151Z AUTO 28006KT 2SM RA BR OVC004 01/01 A3010 RMK AO2 SLP197
                 P0011 60052 70052 T00110006 10017 20006 58037 =
2018-11-13 06:33 METAR KCON 131133Z AUTO 32003KT 2 1/2SM RA BR OVC004 01/01 A3011 RMK AO2 P0007
                 T00110006 =
2018-11-13 06:23 METAR KCON 131123Z AUTO 32003KT 2 1/2SM RA BR OVC005 01/01 A3012 =
2018-11-13 05:51 METAR KCON 131051Z AUTO 00000KT 2SM RA BR OVC004 01/01 A3015 RMK AO2 SLP214
                 P0013 T00110006 =
2018-11-13 05:42 METAR KCON 131042Z AUTO 29004KT 2SM RA BR OVC004 01/01 A3016 =
2018-11-13 05:11 METAR KCON 131011Z AUTO 00000KT 2 1/2SM RA BR OVC005 01/01 A3019 RMK AO2 P0004
                 T00110006 =
2018-11-13 04:51 METAR KCON 130951Z AUTO 00000KT 2SM RA BR BKN003 OVC007 01/00 A3021 RMK AO2
                 SLP233 P0012 T00110000 =
2018-11-13 04:48 METAR KCON 130948Z AUTO 00000KT 2 1/2SM RA BR BKN003 OVC007 01/00 A3021 RMK AO2
                 CIG 002V006 P0011 =
2018-11-13 04:37 METAR KCON 130937Z AUTO 00000KT 2 1/2SM RA BR OVC007 01/00 A3021 =
2018-11-13 03:51 METAR KCON 130851Z AUTO 29005KT 3SM RA BR OVC009 01/00 A3024 RMK AO2 SLP244
                 P0011 60016 T00060000 58023 =
2018-11-13 03:32 METAR KCON 130832Z AUTO 00000KT 3SM RA BR BKN011 OVC024 01/00 A3024 RMK AO2
                 P0008 T00060000 =
2018-11-13 02:51 METAR KCON 130751Z AUTO 32003KT 4SM RA BR FEW014 OVC025 01/00 A3027 RMK AO2
                 RAB0655 SLP253 P0005 T00110000 =
2018-11-13 01:51 METAR KCON 130651Z AUTO 04003KT 10SM OVC029 02/M02 A3029 RMK AO2 SLP259
                 T00171017 =
2018-11-13 01:00 METAR KCON 130600Z AUTO 00000KT 10SM BKN029 OVC085 01/M02 A3031 RMK AO2
                 T00061017 =
2018-11-13 00:51 METAR KCON 130551Z AUTO 00000KT 10SM BKN030 OVC075 01/M02 A3031 RMK AO2 SLP266
                 T00111022 10017 21011 56021 =
2018-11-12 23:51 METAR KCON 130451Z AUTO 00000KT 10SM BKN090 OVC110 01/M03 A3033 RMK AO2 SLP274
                 T00111028 400891078 =
2018-11-12 22:51 METAR KCON 130351Z AUTO 00000KT 10SM OVC085 01/M03 A3035 RMK AO2 SLP280
                 T00111028 =
2018-11-12 21:51 METAR KCON 130251Z AUTO 00000KT 10SM OVC110 01/M03 A3037 RMK AO2 SLP288
                 T00111033 53002 =
2018-11-12 20:51 METAR KCON 130151Z AUTO 00000KT 10SM OVC110 00/M03 A3036 RMK AO2 SLP287
                 T00001028 =

Support USWX by starting your Amazon purchase here.